createdAt,value
2022-10-29T00:00:31.891Z,0.00
2022-10-29T00:01:31.936Z,0.00
2022-10-29T00:02:31.927Z,0.00
2022-10-29T00:03:32.534Z,0.00
2022-10-29T00:04:31.875Z,0.00
2022-10-29T00:05:31.884Z,0.00
2022-10-29T00:06:31.864Z,0.00
2022-10-29T00:07:31.887Z,0.00
2022-10-29T00:08:31.805Z,0.00
2022-10-29T00:09:31.814Z,0.00
2022-10-29T00:10:31.832Z,0.00
2022-10-29T00:11:31.808Z,0.00
2022-10-29T00:12:31.812Z,0.00
2022-10-29T00:13:31.789Z,0.00
2022-10-29T00:14:32.761Z,0.00
2022-10-29T00:15:31.750Z,0.00
2022-10-29T00:16:31.764Z,0.00
2022-10-29T00:17:31.825Z,0.00
2022-10-29T00:18:31.745Z,0.00
2022-10-29T00:19:31.759Z,0.00
2022-10-29T00:20:31.777Z,0.00
2022-10-29T00:21:31.730Z,0.00
2022-10-29T00:22:31.708Z,0.00
2022-10-29T00:23:32.539Z,0.00
2022-10-29T00:24:31.730Z,0.00
2022-10-29T00:25:31.699Z,0.00
2022-10-29T00:26:31.666Z,0.00
2022-10-29T00:27:31.644Z,0.00
2022-10-29T00:28:31.665Z,0.00
2022-10-29T00:29:31.660Z,0.00
2022-10-29T00:30:31.650Z,0.00
2022-10-29T00:31:31.755Z,0.00
2022-10-29T00:32:31.593Z,0.00
2022-10-29T00:33:31.666Z,0.00
2022-10-29T00:34:31.585Z,0.00
2022-10-29T00:35:31.586Z,0.00
2022-10-29T00:36:31.604Z,0.00
2022-10-29T00:37:31.607Z,0.00
2022-10-29T00:38:31.559Z,0.00
2022-10-29T00:39:31.558Z,0.00
2022-10-29T00:40:31.523Z,0.00
2022-10-29T00:41:31.624Z,0.00
2022-10-29T00:42:31.537Z,0.00
2022-10-29T00:43:31.531Z,0.00
2022-10-29T00:44:31.574Z,0.00
2022-10-29T00:45:31.544Z,0.00
2022-10-29T00:46:31.622Z,0.00
2022-10-29T00:47:31.487Z,0.00
2022-10-29T00:48:31.616Z,0.00
2022-10-29T00:49:31.484Z,0.00
2022-10-29T00:50:31.496Z,0.00
2022-10-29T00:51:31.495Z,0.00
2022-10-29T00:52:32.484Z,0.00
2022-10-29T00:53:31.498Z,0.00
2022-10-29T00:54:31.467Z,0.00
2022-10-29T00:55:31.478Z,0.00
2022-10-29T00:56:31.447Z,0.00
2022-10-29T00:57:31.435Z,0.00
2022-10-29T00:58:31.415Z,0.00
2022-10-29T00:59:31.440Z,0.00
2022-10-29T01:00:31.422Z,0.00
2022-10-29T01:01:31.598Z,0.00
2022-10-29T01:03:06.816Z,0.00
2022-10-29T01:03:31.339Z,0.00
2022-10-29T01:04:31.374Z,0.00
2022-10-29T01:05:31.379Z,0.00
2022-10-29T01:06:31.466Z,0.00
2022-10-29T01:07:31.370Z,0.00
2022-10-29T01:08:31.327Z,0.00
2022-10-29T01:09:31.360Z,0.00
2022-10-29T01:10:31.332Z,0.00
2022-10-29T01:11:31.309Z,0.00
2022-10-29T01:12:31.306Z,0.00
2022-10-29T01:13:31.301Z,0.00
2022-10-29T01:14:31.272Z,0.00
2022-10-29T01:15:31.337Z,0.00
2022-10-29T01:16:31.322Z,0.00
2022-10-29T01:17:31.268Z,0.00
2022-10-29T01:18:31.298Z,0.00
2022-10-29T01:19:31.278Z,0.00
2022-10-29T01:20:31.247Z,0.00
2022-10-29T01:21:31.291Z,0.00
2022-10-29T01:22:31.214Z,0.00
2022-10-29T01:23:31.223Z,0.00
2022-10-29T01:24:31.223Z,0.00
2022-10-29T01:25:31.202Z,0.00
2022-10-29T01:26:31.204Z,0.00
2022-10-29T01:27:31.276Z,0.00
2022-10-29T01:29:32.179Z,0.00
2022-10-29T01:30:31.154Z,0.00
2022-10-29T01:31:31.177Z,0.00
2022-10-29T01:32:31.204Z,0.00
2022-10-29T01:33:31.209Z,0.00
2022-10-29T01:34:31.177Z,0.00
2022-10-29T01:35:31.121Z,0.00
2022-10-29T01:36:31.166Z,0.00
2022-10-29T01:37:31.120Z,0.00
2022-10-29T01:39:04.191Z,0.00
2022-10-29T01:39:31.076Z,0.00
2022-10-29T01:41:05.226Z,0.00
2022-10-29T01:41:31.120Z,0.00
2022-10-29T01:43:04.765Z,0.00
2022-10-29T01:44:05.243Z,0.00
2022-10-29T01:44:31.064Z,0.00
2022-10-29T04:02:47.797Z,0.00
2022-10-29T04:03:47.739Z,0.00
2022-10-29T04:04:48.856Z,0.00
2022-10-29T04:05:48.936Z,0.00
2022-10-29T04:06:48.867Z,0.00
2022-10-29T04:07:48.862Z,0.00
2022-10-29T04:08:48.838Z,0.00
2022-10-29T04:09:48.844Z,0.00
2022-10-29T04:10:48.856Z,0.00
2022-10-29T04:11:48.846Z,0.00
2022-10-29T04:12:48.808Z,0.00
2022-10-29T04:13:48.838Z,0.00
2022-10-29T04:14:48.828Z,0.00
2022-10-29T04:15:48.804Z,0.00
2022-10-29T04:16:48.839Z,0.00
2022-10-29T04:17:48.749Z,0.00
2022-10-29T04:18:48.781Z,0.00
2022-10-29T04:19:48.741Z,0.00
2022-10-29T04:27:08.313Z,0.00
2022-10-29T04:28:50.729Z,0.00
2022-10-29T04:29:48.695Z,0.00
2022-10-29T04:30:48.694Z,0.00
2022-10-29T04:31:48.681Z,0.00
2022-10-29T04:32:48.638Z,0.00
2022-10-29T04:33:48.611Z,0.00
2022-10-29T04:34:48.636Z,0.00
2022-10-29T04:35:48.593Z,0.00
2022-10-29T04:36:48.631Z,0.00
2022-10-29T04:37:48.589Z,0.00
2022-10-29T04:38:48.617Z,0.00
2022-10-29T04:39:48.581Z,0.00
2022-10-29T04:40:48.596Z,0.00
2022-10-29T04:41:48.584Z,0.00
2022-10-29T04:42:48.569Z,0.00
2022-10-29T04:43:48.536Z,0.00
2022-10-29T04:44:48.564Z,0.00
2022-10-29T04:45:48.744Z,0.00
2022-10-29T04:46:48.542Z,0.00
2022-10-29T04:47:48.578Z,0.00
2022-10-29T04:50:46.615Z,0.00
2022-10-29T04:51:54.731Z,0.00
2022-10-29T04:53:19.902Z,0.00
2022-10-29T04:53:47.738Z,0.00
2022-10-29T04:54:47.734Z,0.00
2022-10-29T04:55:47.731Z,0.00
2022-10-29T04:56:48.359Z,0.00
2022-10-29T04:57:47.686Z,0.00
2022-10-29T04:58:47.672Z,0.00
2022-10-29T04:59:47.663Z,0.00
2022-10-29T05:00:47.775Z,0.00
2022-10-29T05:01:47.672Z,0.00
2022-10-29T05:02:47.667Z,0.00
2022-10-29T05:03:47.688Z,0.00
2022-10-29T05:04:47.674Z,0.00
2022-10-29T05:05:47.689Z,0.00
2022-10-29T05:06:47.628Z,0.00
2022-10-29T05:07:47.693Z,0.00
2022-10-29T05:08:47.704Z,0.00
2022-10-29T05:09:47.603Z,0.00
2022-10-29T05:10:47.583Z,0.00
2022-10-29T05:11:47.606Z,0.00
2022-10-29T05:12:47.606Z,0.00
2022-10-29T05:13:47.572Z,0.00
2022-10-29T05:14:47.576Z,0.00
2022-10-29T05:15:52.738Z,0.00
2022-10-29T05:16:49.596Z,0.00
2022-10-29T05:17:47.588Z,0.00
2022-10-29T05:18:47.555Z,0.00
2022-10-29T05:19:47.584Z,0.00
2022-10-29T05:20:47.547Z,0.00
2022-10-29T05:21:47.532Z,0.00
2022-10-29T05:22:47.529Z,0.00
2022-10-29T05:23:47.552Z,0.00
2022-10-29T05:24:47.516Z,0.00
2022-10-29T05:25:47.526Z,0.00
2022-10-29T05:26:47.538Z,0.00
2022-10-29T05:27:47.472Z,0.00
2022-10-29T05:28:47.473Z,0.00
2022-10-29T05:29:47.469Z,0.00
2022-10-29T05:30:47.495Z,0.00
2022-10-29T05:31:47.508Z,0.00
2022-10-29T05:32:47.412Z,0.00
2022-10-29T05:33:50.038Z,0.00
2022-10-29T05:34:47.433Z,0.00
2022-10-29T05:35:47.417Z,0.00
2022-10-29T05:36:47.433Z,4.00
2022-10-29T05:37:47.408Z,4.00
2022-10-29T05:38:47.382Z,4.00
2022-10-29T05:39:47.379Z,4.00
2022-10-29T05:40:48.385Z,4.00
2022-10-29T05:41:47.368Z,4.00
2022-10-29T05:42:48.430Z,4.00
2022-10-29T05:43:47.373Z,8.00
2022-10-29T05:44:47.399Z,8.00
2022-10-29T05:45:47.380Z,8.00
2022-10-29T05:46:47.350Z,12.00
2022-10-29T05:47:47.392Z,12.00
2022-10-29T05:48:47.344Z,16.00
2022-10-29T05:49:47.336Z,16.00
2022-10-29T05:50:47.292Z,20.00
2022-10-29T05:51:47.305Z,20.00
2022-10-29T05:52:47.296Z,24.00
2022-10-29T05:53:47.292Z,24.00
2022-10-29T05:54:47.288Z,28.00
2022-10-29T05:55:47.302Z,32.00
2022-10-29T05:56:47.273Z,40.00
2022-10-29T05:57:47.278Z,44.00
2022-10-29T05:58:47.283Z,44.00
2022-10-29T05:59:47.227Z,48.00
2022-10-29T06:00:47.210Z,56.00
2022-10-29T06:01:47.321Z,64.00
2022-10-29T06:02:47.259Z,68.00
2022-10-29T06:03:47.325Z,76.00
2022-10-29T06:04:47.211Z,80.00
2022-10-29T06:05:47.216Z,88.00
2022-10-29T06:06:47.297Z,92.00
2022-10-29T06:07:47.203Z,96.00
2022-10-29T06:08:47.181Z,96.00
2022-10-29T06:09:47.160Z,100.00
2022-10-29T06:10:47.192Z,96.00
2022-10-29T06:11:47.150Z,100.00
2022-10-29T06:12:47.134Z,100.00
2022-10-29T06:13:47.187Z,112.00
2022-10-29T06:14:47.151Z,124.00
2022-10-29T06:15:47.151Z,132.00
2022-10-29T06:16:47.087Z,136.00
2022-10-29T06:17:47.090Z,144.00
2022-10-29T06:18:47.084Z,144.00
2022-10-29T06:19:47.072Z,140.00
2022-10-29T06:20:47.091Z,140.00
2022-10-29T06:21:47.051Z,140.00
2022-10-29T06:22:47.073Z,144.00
2022-10-29T06:23:47.049Z,152.00
2022-10-29T06:24:47.057Z,156.00
2022-10-29T06:25:47.013Z,164.00
2022-10-29T06:26:47.006Z,172.00
2022-10-29T06:27:47.027Z,188.00
2022-10-29T06:28:47.027Z,200.00
2022-10-29T06:29:46.989Z,208.00
2022-10-29T06:30:46.996Z,224.00
2022-10-29T06:31:46.958Z,228.00
2022-10-29T06:32:46.987Z,240.00
2022-10-29T06:33:47.001Z,252.00
2022-10-29T06:34:46.928Z,256.00
2022-10-29T06:35:46.963Z,276.00
2022-10-29T06:36:46.932Z,284.00
2022-10-29T06:37:46.919Z,300.00
2022-10-29T06:38:46.911Z,320.00
2022-10-29T06:39:46.905Z,340.00
2022-10-29T06:40:46.982Z,376.00
2022-10-29T06:41:46.903Z,412.00
2022-10-29T06:42:46.915Z,440.00
2022-10-29T06:43:46.860Z,484.00
2022-10-29T06:44:46.871Z,520.00
2022-10-29T06:45:46.898Z,540.00
2022-10-29T06:46:46.903Z,564.00
2022-10-29T06:47:46.878Z,596.00
2022-10-29T06:48:46.825Z,624.00
2022-10-29T06:49:46.811Z,652.00
2022-10-29T06:50:46.811Z,692.00
2022-10-29T06:51:46.820Z,736.00
2022-10-29T06:52:46.869Z,788.00
2022-10-29T06:53:47.013Z,832.00
2022-10-29T06:54:46.786Z,852.00
2022-10-29T06:55:46.792Z,856.00
2022-10-29T06:56:46.770Z,864.00
2022-10-29T06:57:46.790Z,856.00
2022-10-29T06:58:46.806Z,836.00
2022-10-29T06:59:46.763Z,836.00
2022-10-29T07:01:21.441Z,832.00
2022-10-29T07:01:46.858Z,840.00
2022-10-29T07:02:46.714Z,852.00
2022-10-29T07:03:46.732Z,852.00
2022-10-29T07:04:47.796Z,852.00
2022-10-29T07:05:46.700Z,868.00
2022-10-29T07:06:46.729Z,892.00
2022-10-29T07:07:46.702Z,916.00
2022-10-29T07:08:46.672Z,940.00
2022-10-29T07:09:46.715Z,944.00
2022-10-29T07:10:46.729Z,940.00
2022-10-29T07:11:46.659Z,960.00
2022-10-29T07:12:46.688Z,992.00
2022-10-29T07:13:46.651Z,1016.00
2022-10-29T07:14:46.669Z,1040.00
2022-10-29T07:15:46.655Z,1044.00
2022-10-29T07:16:46.644Z,1072.00
2022-10-29T07:17:46.624Z,1108.00
2022-10-29T07:18:46.690Z,1144.00
2022-10-29T07:19:46.628Z,1152.00
2022-10-29T07:20:46.608Z,1140.00
2022-10-29T07:21:46.647Z,1168.00
2022-10-29T07:22:46.595Z,1196.00
2022-10-29T07:23:46.556Z,1228.00
2022-10-29T07:24:46.592Z,1272.00
2022-10-29T07:25:46.626Z,1332.00
2022-10-29T07:26:46.589Z,1388.00
2022-10-29T07:27:47.661Z,1448.00
2022-10-29T07:28:46.544Z,1520.00
2022-10-29T07:29:46.564Z,1576.00
2022-10-29T07:30:46.502Z,1624.00
2022-10-29T07:31:46.526Z,1696.00
2022-10-29T07:33:21.006Z,1780.00
2022-10-29T07:33:46.483Z,1884.00
2022-10-29T07:34:46.497Z,2008.00
2022-10-29T07:35:46.528Z,2056.00
2022-10-29T07:36:46.497Z,2176.00
2022-10-29T07:37:46.468Z,2388.00
2022-10-29T07:38:46.454Z,2320.00
2022-10-29T07:39:46.461Z,2288.00
2022-10-29T07:40:46.493Z,2204.00
2022-10-29T07:41:46.491Z,2136.00
2022-10-29T07:42:46.433Z,2100.00
2022-10-29T07:43:46.434Z,2052.00
2022-10-29T07:44:46.418Z,1996.00
2022-10-29T07:45:46.423Z,1944.00
2022-10-29T07:46:46.470Z,1888.00
2022-10-29T07:47:46.408Z,1848.00
2022-10-29T07:48:46.377Z,1824.00
2022-10-29T07:49:46.415Z,1824.00
2022-10-29T07:50:46.363Z,1852.00
2022-10-29T07:51:46.431Z,1916.00
2022-10-29T07:52:46.354Z,1992.00
2022-10-29T07:53:46.361Z,2064.00
2022-10-29T07:54:46.315Z,2128.00
2022-10-29T07:55:46.298Z,2184.00
2022-10-29T07:56:47.772Z,2236.00
2022-10-29T07:57:46.314Z,2312.00
2022-10-29T07:58:46.352Z,2396.00
2022-10-29T07:59:46.326Z,2604.00
2022-10-29T08:00:46.347Z,4220.00
2022-10-29T08:01:46.382Z,5116.00
2022-10-29T08:02:46.286Z,3664.00
2022-10-29T08:03:46.352Z,3544.00
2022-10-29T08:04:46.300Z,3088.00
2022-10-29T08:05:46.245Z,2936.00
2022-10-29T08:06:46.271Z,2924.00
2022-10-29T08:07:46.261Z,2932.00
2022-10-29T08:08:46.302Z,2944.00
2022-10-29T08:09:46.277Z,2980.00
2022-10-29T08:10:46.245Z,2996.00
2022-10-29T08:12:46.254Z,2920.00
2022-10-29T08:13:46.183Z,2868.00
2022-10-29T08:15:19.456Z,2820.00
2022-10-29T08:16:20.425Z,2812.00
2022-10-29T08:16:46.175Z,2800.00
2022-10-29T08:17:46.180Z,2820.00
2022-10-29T08:18:46.147Z,2948.00
2022-10-29T08:19:46.096Z,2892.00
2022-10-29T08:20:47.161Z,2984.00
2022-10-29T08:21:47.115Z,3040.00
2022-10-29T08:22:46.139Z,3144.00
2022-10-29T08:23:46.132Z,3264.00
2022-10-29T08:24:46.114Z,3348.00
2022-10-29T08:25:46.153Z,3444.00
2022-10-29T08:26:46.086Z,3460.00
2022-10-29T08:27:46.137Z,3412.00
2022-10-29T08:28:46.074Z,3344.00
2022-10-29T08:29:46.049Z,3276.00
2022-10-29T08:30:46.066Z,3236.00
2022-10-29T08:31:46.105Z,3184.00
2022-10-29T08:32:46.031Z,3132.00
2022-10-29T08:33:46.054Z,3064.00
2022-10-29T08:34:46.050Z,2996.00
2022-10-29T08:35:45.999Z,2956.00
2022-10-29T08:36:45.982Z,2932.00
2022-10-29T08:37:46.018Z,2904.00
2022-10-29T08:38:46.013Z,2888.00
2022-10-29T08:39:45.963Z,2868.00
2022-10-29T08:40:45.989Z,2852.00
2022-10-29T08:41:45.978Z,2844.00
2022-10-29T08:42:46.003Z,2832.00
2022-10-29T08:44:18.981Z,2832.00
2022-10-29T08:44:45.941Z,2844.00
2022-10-29T08:45:45.925Z,2876.00
2022-10-29T08:46:45.929Z,2964.00
2022-10-29T08:47:45.915Z,3096.00
2022-10-29T08:48:45.957Z,3216.00
2022-10-29T08:49:45.933Z,3172.00
2022-10-29T08:50:45.875Z,3044.00
2022-10-29T08:51:45.878Z,2848.00
2022-10-29T08:52:58.669Z,2660.00
2022-10-29T08:54:03.992Z,2500.00
2022-10-29T08:54:47.899Z,2404.00
2022-10-29T08:55:46.891Z,2340.00
2022-10-29T08:56:45.857Z,2316.00
2022-10-29T08:57:45.888Z,2340.00
2022-10-29T08:58:45.860Z,2392.00
2022-10-29T08:59:45.878Z,2508.00
2022-10-29T09:00:45.923Z,2672.00
2022-10-29T09:01:46.039Z,2812.00
2022-10-29T09:02:45.851Z,2940.00
2022-10-29T09:03:45.781Z,3060.00
2022-10-29T09:04:45.877Z,3144.00
2022-10-29T09:05:45.807Z,3264.00
2022-10-29T09:06:45.793Z,3356.00
2022-10-29T09:07:45.783Z,3496.00
2022-10-29T09:08:45.818Z,3728.00
2022-10-29T09:09:45.825Z,4140.00
2022-10-29T09:10:45.736Z,5032.00
2022-10-29T09:11:45.731Z,5964.00
2022-10-29T09:12:45.768Z,7312.00
2022-10-29T09:13:45.733Z,7956.00
2022-10-29T09:14:45.791Z,8736.00
2022-10-29T09:15:45.868Z,9724.00
2022-10-29T09:16:46.692Z,9972.00
2022-10-29T09:17:45.745Z,9064.00
2022-10-29T09:18:45.690Z,22112.00
2022-10-29T09:19:45.723Z,10320.00
2022-10-29T09:20:45.652Z,15840.00
2022-10-29T09:21:45.676Z,15020.00
2022-10-29T09:22:45.669Z,11504.00
2022-10-29T09:23:45.705Z,10048.00
2022-10-29T09:24:45.744Z,11980.00
2022-10-29T09:25:45.714Z,12372.00
2022-10-29T09:26:45.679Z,11244.00
2022-10-29T09:27:45.646Z,10384.00
2022-10-29T09:28:45.638Z,9172.00
2022-10-29T09:29:45.594Z,8760.00
2022-10-29T09:30:45.577Z,8444.00
2022-10-29T09:31:45.589Z,8068.00
2022-10-29T09:32:45.650Z,7724.00
2022-10-29T09:33:45.640Z,7408.00
2022-10-29T09:34:45.596Z,6988.00
2022-10-29T09:35:45.578Z,6492.00
2022-10-29T09:36:45.525Z,6116.00
2022-10-29T09:37:45.566Z,5924.00
2022-10-29T09:38:45.602Z,5780.00
2022-10-29T09:39:45.555Z,5732.00
2022-10-29T09:40:45.587Z,5636.00
2022-10-29T09:41:45.623Z,5472.00
2022-10-29T09:42:45.529Z,5412.00
2022-10-29T09:43:45.498Z,5356.00
2022-10-29T09:44:45.504Z,5292.00
2022-10-29T09:45:45.479Z,5288.00
2022-10-29T09:46:45.495Z,5256.00
2022-10-29T09:47:45.494Z,5196.00
2022-10-29T09:48:45.421Z,5140.00
2022-10-29T09:49:45.538Z,5096.00
2022-10-29T09:50:45.453Z,4988.00
2022-10-29T09:51:45.458Z,4952.00
2022-10-29T09:52:45.457Z,4912.00
2022-10-29T09:53:45.426Z,4872.00
2022-10-29T09:54:45.428Z,4796.00
2022-10-29T09:55:45.452Z,4700.00
2022-10-29T09:56:45.394Z,4708.00
2022-10-29T09:57:45.415Z,4768.00
2022-10-29T09:58:45.449Z,4832.00
2022-10-29T09:59:45.373Z,4992.00
2022-10-29T10:00:45.439Z,5188.00
2022-10-29T10:01:45.411Z,5352.00
2022-10-29T10:02:45.468Z,5844.00
2022-10-29T10:03:45.990Z,5852.00
2022-10-29T10:04:45.298Z,5884.00
2022-10-29T10:05:45.299Z,6016.00
2022-10-29T10:06:45.326Z,6092.00
2022-10-29T10:07:45.340Z,6152.00
2022-10-29T10:08:45.315Z,6016.00
2022-10-29T10:09:45.266Z,5884.00
2022-10-29T10:10:45.325Z,5808.00
2022-10-29T10:11:45.325Z,5652.00
2022-10-29T10:12:45.296Z,5456.00
2022-10-29T10:13:45.290Z,5348.00
2022-10-29T10:14:45.252Z,5224.00
2022-10-29T10:15:45.293Z,5072.00
2022-10-29T10:16:45.232Z,4760.00
2022-10-29T10:17:45.264Z,4520.00
2022-10-29T10:18:45.244Z,4376.00
2022-10-29T10:19:45.231Z,4212.00
2022-10-29T10:20:45.212Z,4064.00
2022-10-29T10:21:45.233Z,3952.00
2022-10-29T10:22:45.218Z,3840.00
2022-10-29T10:23:45.215Z,3712.00
2022-10-29T10:24:45.229Z,3668.00
2022-10-29T10:25:45.178Z,3600.00
2022-10-29T10:26:45.168Z,3596.00
2022-10-29T10:27:45.653Z,3556.00
2022-10-29T10:28:45.154Z,3504.00
2022-10-29T10:29:45.161Z,3484.00
2022-10-29T10:30:45.131Z,3480.00
2022-10-29T10:31:45.156Z,3496.00
2022-10-29T10:32:45.140Z,3576.00
2022-10-29T10:33:45.136Z,3656.00
2022-10-29T10:34:45.084Z,3752.00
2022-10-29T10:35:45.081Z,3748.00
2022-10-29T10:36:45.092Z,3768.00
2022-10-29T10:37:45.103Z,3844.00
2022-10-29T10:38:45.054Z,3928.00
2022-10-29T10:39:45.031Z,4076.00
2022-10-29T10:40:45.065Z,4344.00
2022-10-29T10:41:45.064Z,4712.00
2022-10-29T10:42:45.064Z,5108.00
2022-10-29T10:43:45.077Z,5704.00
2022-10-29T10:44:46.037Z,5664.00
2022-10-29T10:45:45.069Z,5800.00
2022-10-29T10:46:45.059Z,5972.00
2022-10-29T10:47:45.069Z,6032.00
2022-10-29T10:48:45.040Z,6012.00
2022-10-29T10:50:18.426Z,5908.00
2022-10-29T10:50:45.033Z,5724.00
2022-10-29T10:51:46.058Z,5664.00
2022-10-29T10:52:45.062Z,5692.00
2022-10-29T10:53:45.012Z,5792.00
2022-10-29T10:54:45.112Z,5860.00
2022-10-29T10:55:44.924Z,5860.00
2022-10-29T10:56:44.980Z,5920.00
2022-10-29T10:57:44.959Z,5912.00
2022-10-29T10:58:45.068Z,5936.00
2022-10-29T10:59:44.928Z,6360.00
2022-10-29T11:00:46.063Z,6024.00
2022-10-29T11:01:45.028Z,6020.00
2022-10-29T11:02:44.908Z,5964.00
2022-10-29T11:03:44.889Z,5952.00
2022-10-29T11:04:45.903Z,5828.00
2022-10-29T11:05:45.899Z,5828.00
2022-10-29T11:06:44.824Z,5856.00
2022-10-29T11:07:44.838Z,5896.00
2022-10-29T11:08:44.796Z,5924.00
2022-10-29T11:09:44.842Z,5944.00
2022-10-29T11:10:44.821Z,5984.00
2022-10-29T11:11:44.797Z,5996.00
2022-10-29T11:12:44.868Z,6088.00
2022-10-29T11:13:44.807Z,6056.00
2022-10-29T11:14:44.843Z,6092.00
2022-10-29T11:15:44.827Z,6148.00
2022-10-29T11:16:44.805Z,6304.00
2022-10-29T11:17:46.158Z,6476.00
2022-10-29T11:18:44.839Z,6792.00
2022-10-29T11:19:44.842Z,7000.00
2022-10-29T11:20:44.736Z,7272.00
2022-10-29T11:21:44.734Z,7600.00
2022-10-29T11:22:44.737Z,7904.00
2022-10-29T11:23:44.732Z,7804.00
2022-10-29T11:24:44.747Z,7800.00
2022-10-29T11:25:44.706Z,8320.00
2022-10-29T11:26:44.690Z,8036.00
2022-10-29T11:27:44.746Z,7432.00
2022-10-29T11:28:44.683Z,7192.00
2022-10-29T11:29:49.057Z,7152.00
2022-10-29T11:30:46.748Z,7268.00
2022-10-29T11:31:44.675Z,7180.00
2022-10-29T11:32:44.666Z,7176.00
2022-10-29T11:33:44.705Z,7020.00
2022-10-29T11:34:44.650Z,7176.00
2022-10-29T11:35:44.684Z,6948.00
2022-10-29T11:36:44.645Z,6752.00
2022-10-29T11:37:44.648Z,6648.00
2022-10-29T11:38:44.598Z,6496.00
2022-10-29T11:39:44.668Z,6372.00
2022-10-29T11:40:44.667Z,6224.00
2022-10-29T11:41:44.648Z,6152.00
2022-10-29T11:42:44.579Z,6088.00
2022-10-29T11:43:45.215Z,6028.00
2022-10-29T11:44:45.128Z,5980.00
2022-10-29T11:45:45.172Z,5968.00
2022-10-29T11:46:44.545Z,5808.00
2022-10-29T11:47:44.598Z,5792.00
2022-10-29T11:48:44.561Z,5712.00
2022-10-29T11:49:44.574Z,5716.00
2022-10-29T11:50:44.539Z,5716.00
2022-10-29T11:51:44.518Z,5756.00
2022-10-29T11:52:44.581Z,5768.00
2022-10-29T11:53:44.571Z,5764.00
2022-10-29T11:54:44.558Z,5880.00
2022-10-29T11:55:44.525Z,5896.00
2022-10-29T11:56:44.502Z,5816.00
2022-10-29T11:57:44.475Z,5824.00
2022-10-29T11:58:44.428Z,5840.00
2022-10-29T12:00:18.783Z,5796.00
2022-10-29T12:00:44.435Z,5740.00
2022-10-29T12:01:44.494Z,5744.00
2022-10-29T12:02:44.492Z,5968.00
2022-10-29T12:03:44.426Z,6028.00
2022-10-29T12:04:44.402Z,6188.00
2022-10-29T12:05:44.412Z,6564.00
2022-10-29T12:06:44.379Z,6764.00
2022-10-29T12:07:44.369Z,6716.00
2022-10-29T12:08:44.339Z,6972.00
2022-10-29T12:09:44.329Z,7128.00
2022-10-29T12:10:44.354Z,7476.00
2022-10-29T12:11:44.316Z,7496.00
2022-10-29T12:12:44.360Z,7312.00
2022-10-29T12:14:18.743Z,7380.00
2022-10-29T12:14:44.988Z,7144.00
2022-10-29T12:15:44.296Z,7420.00
2022-10-29T12:16:44.307Z,7620.00
2022-10-29T12:17:45.268Z,7368.00
2022-10-29T12:18:44.287Z,7308.00
2022-10-29T12:19:44.264Z,7136.00
2022-10-29T12:20:44.416Z,7256.00
2022-10-29T12:21:44.303Z,7068.00
2022-10-29T12:22:44.288Z,7088.00
2022-10-29T12:23:44.285Z,6908.00
2022-10-29T12:24:44.315Z,6832.00
2022-10-29T12:25:44.258Z,6792.00
2022-10-29T12:26:44.241Z,6540.00
2022-10-29T12:27:44.219Z,6548.00
2022-10-29T12:28:44.319Z,6688.00
2022-10-29T12:29:44.993Z,6880.00
2022-10-29T12:30:44.200Z,6756.00
2022-10-29T12:31:44.241Z,7008.00
2022-10-29T12:32:44.211Z,6936.00
2022-10-29T12:33:44.173Z,6132.00
2022-10-29T12:34:44.249Z,5944.00
2022-10-29T12:35:44.163Z,5912.00
2022-10-29T12:36:44.204Z,5868.00
2022-10-29T12:37:44.161Z,5964.00
2022-10-29T12:38:44.162Z,6068.00
2022-10-29T12:39:44.114Z,6028.00
2022-10-29T12:40:44.122Z,6312.00
2022-10-29T12:41:44.190Z,6444.00
2022-10-29T12:42:45.163Z,6656.00
2022-10-29T12:43:44.191Z,6528.00
2022-10-29T12:44:45.298Z,6800.00
2022-10-29T12:46:14.400Z,7104.00
2022-10-29T12:46:46.146Z,6908.00
2022-10-29T12:47:44.096Z,6436.00
2022-10-29T12:48:44.058Z,6440.00
2022-10-29T12:49:44.673Z,6236.00
2022-10-29T12:50:44.037Z,6972.00
2022-10-29T12:51:44.105Z,7036.00
2022-10-29T12:52:44.034Z,6388.00
2022-10-29T12:53:44.012Z,6192.00
2022-10-29T12:54:44.061Z,6212.00
2022-10-29T12:55:43.985Z,6064.00
2022-10-29T12:56:47.752Z,6008.00
2022-10-29T12:57:45.046Z,6068.00
2022-10-29T12:58:43.995Z,7132.00
2022-10-29T12:59:44.014Z,7176.00
2022-10-29T13:00:43.977Z,6012.00
2022-10-29T13:02:09.860Z,6028.00
2022-10-29T13:02:46.116Z,6044.00
2022-10-29T13:03:43.927Z,6084.00
2022-10-29T13:04:43.929Z,6092.00
2022-10-29T13:05:43.945Z,6036.00
2022-10-29T13:06:43.971Z,6092.00
2022-10-29T13:07:43.962Z,6076.00
2022-10-29T13:08:43.920Z,6204.00
2022-10-29T13:09:48.185Z,6364.00
2022-10-29T13:10:44.873Z,6236.00
2022-10-29T13:11:43.920Z,6104.00
2022-10-29T13:12:43.948Z,6108.00
2022-10-29T13:13:43.882Z,6576.00
2022-10-29T13:14:43.911Z,6092.00
2022-10-29T13:15:43.842Z,5940.00
2022-10-29T13:16:43.856Z,5900.00
2022-10-29T13:17:43.831Z,5888.00
2022-10-29T13:18:44.513Z,6196.00
2022-10-29T13:19:43.906Z,7012.00
2022-10-29T13:20:43.861Z,7128.00
2022-10-29T13:21:43.845Z,6888.00
2022-10-29T13:23:45.700Z,6436.00
2022-10-29T13:24:43.782Z,6284.00
2022-10-29T13:25:43.800Z,6112.00
2022-10-29T13:26:43.744Z,5948.00
2022-10-29T13:27:43.763Z,5600.00
2022-10-29T13:28:44.849Z,5444.00
2022-10-29T13:29:43.790Z,5248.00
2022-10-29T13:30:43.756Z,5124.00
2022-10-29T13:31:43.794Z,4964.00
2022-10-29T13:32:43.773Z,4848.00
2022-10-29T13:33:43.790Z,4748.00
2022-10-29T13:34:43.727Z,4632.00
2022-10-29T13:35:43.725Z,4536.00
2022-10-29T13:36:43.766Z,4448.00
2022-10-29T13:37:43.699Z,4360.00
2022-10-29T13:38:57.872Z,4292.00
2022-10-29T13:39:45.686Z,4256.00
2022-10-29T13:40:43.701Z,4244.00
2022-10-29T13:41:44.071Z,4196.00
2022-10-29T13:42:44.516Z,4168.00
2022-10-29T13:43:43.651Z,4140.00
2022-10-29T13:44:43.657Z,4120.00
2022-10-29T13:45:43.669Z,4108.00
2022-10-29T13:46:45.611Z,4068.00
2022-10-29T13:47:44.606Z,3988.00
2022-10-29T13:48:43.624Z,3928.00
2022-10-29T13:49:43.641Z,3864.00
2022-10-29T13:50:43.602Z,3808.00
2022-10-29T13:51:43.682Z,3752.00
2022-10-29T13:52:43.622Z,3696.00
2022-10-29T13:53:43.603Z,3640.00
2022-10-29T13:54:43.575Z,3592.00
2022-10-29T13:55:43.609Z,3556.00
2022-10-29T13:56:43.618Z,3508.00
2022-10-29T13:57:43.547Z,3464.00
2022-10-29T13:58:44.257Z,3424.00
2022-10-29T13:59:43.603Z,3412.00
2022-10-29T14:00:43.754Z,3364.00
2022-10-29T14:01:43.640Z,3344.00
2022-10-29T14:02:43.681Z,3344.00
2022-10-29T14:03:43.528Z,3336.00
2022-10-29T14:04:43.478Z,3348.00
2022-10-29T14:06:16.756Z,3360.00
2022-10-29T14:06:43.807Z,3384.00
2022-10-29T14:07:43.512Z,3524.00
2022-10-29T14:08:43.444Z,3628.00
2022-10-29T14:09:43.449Z,3572.00
2022-10-29T14:12:40.846Z,3496.00
2022-10-29T14:13:41.304Z,3440.00
2022-10-29T14:14:42.743Z,3356.00
2022-10-29T14:15:43.026Z,3256.00
2022-10-29T14:16:41.986Z,3228.00
2022-10-29T14:17:41.989Z,3120.00
2022-10-29T14:18:41.998Z,3104.00
2022-10-29T14:20:15.490Z,3064.00
2022-10-29T14:20:41.989Z,2984.00
2022-10-29T14:21:42.275Z,2956.00
2022-10-29T14:22:41.944Z,2900.00
2022-10-29T14:23:41.959Z,2848.00
2022-10-29T14:24:42.004Z,2796.00
2022-10-29T14:25:41.932Z,2760.00
2022-10-29T14:26:41.959Z,2708.00
2022-10-29T14:27:42.216Z,2656.00
2022-10-29T14:28:41.913Z,2616.00
2022-10-29T14:29:42.752Z,2576.00
2022-10-29T14:30:41.907Z,2532.00
2022-10-29T14:31:41.821Z,2500.00
2022-10-29T14:32:41.910Z,2476.00
2022-10-29T14:33:41.866Z,2452.00
2022-10-29T14:34:41.910Z,2428.00
2022-10-29T14:35:41.814Z,2408.00
2022-10-29T14:36:41.867Z,2388.00
2022-10-29T14:37:41.822Z,2364.00
2022-10-29T14:38:41.830Z,2340.00
2022-10-29T14:39:56.985Z,2308.00
2022-10-29T14:40:43.799Z,2288.00
2022-10-29T14:41:41.804Z,2264.00
2022-10-29T14:42:41.798Z,2232.00
2022-10-29T14:43:41.803Z,2204.00
2022-10-29T14:44:41.768Z,2168.00
2022-10-29T14:46:17.712Z,2136.00
2022-10-29T14:47:10.950Z,2112.00
2022-10-29T14:48:15.513Z,2080.00
2022-10-29T14:48:41.795Z,2108.00
2022-10-29T14:49:41.762Z,2020.00
2022-10-29T14:50:41.775Z,1988.00
2022-10-29T14:51:41.775Z,1956.00
2022-10-29T14:53:14.446Z,1924.00
2022-10-29T14:53:41.926Z,1888.00
2022-10-29T14:54:42.548Z,1848.00
2022-10-29T14:55:42.585Z,1812.00
2022-10-29T14:56:41.681Z,1768.00
2022-10-29T14:58:14.334Z,1724.00